createdAt,value
2019-01-20T00:01:27.412Z,101266.00
2019-01-20T00:03:57.536Z,101256.00
2019-01-20T00:06:27.635Z,101266.00
2019-01-20T00:08:57.748Z,101261.00
2019-01-20T00:11:27.847Z,101254.00
2019-01-20T00:13:57.950Z,101252.00
2019-01-20T00:16:28.070Z,101254.00
2019-01-20T00:18:58.165Z,101256.00
2019-01-20T00:21:28.281Z,101250.00
2019-01-20T00:23:58.374Z,101251.00
2019-01-20T00:26:28.505Z,101253.00
2019-01-20T00:28:58.594Z,101252.00
2019-01-20T00:31:28.711Z,101252.00
2019-01-20T00:33:58.809Z,101246.00
2019-01-20T00:36:28.923Z,101252.00
2019-01-20T00:38:59.023Z,101244.00
2019-01-20T00:41:29.138Z,101245.00
2019-01-20T00:43:59.234Z,101249.00
2019-01-20T00:46:29.348Z,101251.00
2019-01-20T00:48:59.442Z,101244.00
2019-01-20T00:51:29.930Z,101241.00
2019-01-20T00:54:00.104Z,101246.00
2019-01-20T00:56:30.228Z,101244.00
2019-01-20T00:59:00.325Z,101251.00
2019-01-20T01:01:30.445Z,101245.00
2019-01-20T01:04:00.550Z,101246.00
2019-01-20T01:06:30.669Z,101248.00
2019-01-20T01:09:00.763Z,101253.00
2019-01-20T01:11:32.501Z,101253.00
2019-01-20T01:14:02.755Z,101253.00
2019-01-20T01:16:32.871Z,101253.00
2019-01-20T01:19:02.962Z,101252.00
2019-01-20T01:21:33.077Z,101256.00
2019-01-20T01:24:03.169Z,101256.00
2019-01-20T01:26:33.277Z,101251.00
2019-01-20T01:29:03.375Z,101245.00
2019-01-20T01:31:33.497Z,101246.00
2019-01-20T01:34:03.602Z,101241.00
2019-01-20T01:36:33.781Z,101236.00
2019-01-20T01:39:05.746Z,101236.00
2019-01-20T01:41:39.139Z,101238.00
2019-01-20T01:44:07.663Z,101230.00
2019-01-20T01:46:37.787Z,101237.00
2019-01-20T01:49:27.311Z,101230.00
2019-01-20T01:51:57.436Z,101225.00
2019-01-20T01:54:27.528Z,101231.00
2019-01-20T01:56:57.651Z,101224.00
2019-01-20T01:59:28.728Z,101224.00
2019-01-20T02:01:58.835Z,101218.00
2019-01-20T02:04:28.937Z,101227.00
2019-01-20T02:06:59.061Z,101219.00
2019-01-20T02:09:29.158Z,101224.00
2019-01-20T02:11:59.278Z,101216.00
2019-01-20T02:14:30.346Z,101222.00
2019-01-20T02:17:00.458Z,101226.00
2019-01-20T02:19:30.557Z,101221.00
2019-01-20T02:22:00.676Z,101224.00
2019-01-20T02:24:30.780Z,101215.00
2019-01-20T02:27:00.899Z,101218.00
2019-01-20T02:29:30.998Z,101223.00
2019-01-20T02:32:01.124Z,101226.00
2019-01-20T02:34:31.215Z,101224.00
2019-01-20T02:37:01.329Z,101236.00
2019-01-20T02:39:31.424Z,101234.00
2019-01-20T02:42:01.545Z,101225.00
2019-01-20T02:44:31.639Z,101229.00
2019-01-20T02:47:01.758Z,101219.00
2019-01-20T02:49:31.851Z,101220.00
2019-01-20T02:52:01.970Z,101225.00
2019-01-20T02:54:32.080Z,101229.00
2019-01-20T02:57:02.227Z,101224.00
2019-01-20T02:59:32.418Z,101224.00
2019-01-20T03:02:02.591Z,101225.00
2019-01-20T03:04:32.688Z,101229.00
2019-01-20T03:07:02.803Z,101222.00
2019-01-20T03:09:32.905Z,101226.00
2019-01-20T03:12:03.671Z,101221.00
2019-01-20T03:14:34.003Z,101211.00
2019-01-20T03:17:04.117Z,101221.00
2019-01-20T03:19:34.226Z,101215.00
2019-01-20T03:22:04.510Z,101212.00
2019-01-20T03:24:34.694Z,101217.00
2019-01-20T03:27:04.802Z,101217.00
2019-01-20T03:29:34.899Z,101220.00
2019-01-20T03:32:05.025Z,101219.00
2019-01-20T03:34:35.114Z,101221.00
2019-01-20T03:37:05.235Z,101213.00
2019-01-20T03:39:35.332Z,101203.00
2019-01-20T03:42:11.901Z,101212.00
2019-01-20T03:44:37.245Z,101214.00
2019-01-20T03:47:07.356Z,101208.00
2019-01-20T03:49:37.456Z,101202.00
2019-01-20T03:52:07.573Z,101218.00
2019-01-20T03:54:37.672Z,101210.00
2019-01-20T03:57:07.792Z,101209.00
2019-01-20T03:59:57.313Z,101202.00
2019-01-20T04:02:27.435Z,101209.00
2019-01-20T04:04:57.531Z,101214.00
2019-01-20T04:07:27.658Z,101213.00
2019-01-20T04:09:57.756Z,101219.00
2019-01-20T04:12:27.940Z,101214.00
2019-01-20T04:14:58.044Z,101217.00
2019-01-20T04:17:28.168Z,101212.00
2019-01-20T04:19:58.265Z,101216.00
2019-01-20T04:22:28.381Z,101223.00
2019-01-20T04:24:58.484Z,101206.00
2019-01-20T04:27:28.605Z,101219.00
2019-01-20T04:29:58.698Z,101214.00
2019-01-20T04:32:28.820Z,101217.00
2019-01-20T04:34:58.914Z,101212.00
2019-01-20T04:37:29.031Z,101218.00
2019-01-20T04:39:59.130Z,101211.00
2019-01-20T04:42:29.483Z,101219.00
2019-01-20T04:44:59.625Z,101223.00
2019-01-20T04:47:29.768Z,101217.00
2019-01-20T04:50:00.935Z,101218.00
2019-01-20T04:52:31.050Z,101231.00
2019-01-20T04:55:01.148Z,101230.00
2019-01-20T04:57:45.445Z,101239.00
2019-01-20T05:00:39.457Z,101233.00
2019-01-20T05:03:09.570Z,101223.00
2019-01-20T05:05:39.674Z,101226.00
2019-01-20T05:08:09.787Z,101224.00
2019-01-20T05:10:39.886Z,101235.00
2019-01-20T05:13:10.007Z,101231.00
2019-01-20T05:15:40.109Z,101234.00
2019-01-20T05:18:10.233Z,101227.00
2019-01-20T05:20:40.365Z,101234.00
2019-01-20T05:23:10.487Z,101222.00
2019-01-20T05:25:40.584Z,101226.00
2019-01-20T05:28:10.697Z,101223.00
2019-01-20T05:30:40.796Z,101236.00
2019-01-20T05:33:10.913Z,101220.00
2019-01-20T05:35:41.006Z,101230.00
2019-01-20T05:38:11.124Z,101224.00
2019-01-20T05:40:41.222Z,101236.00
2019-01-20T05:43:11.330Z,101234.00
2019-01-20T05:45:41.434Z,101230.00
2019-01-20T05:48:11.591Z,101235.00
2019-01-20T05:50:41.756Z,101231.00
2019-01-20T05:53:11.872Z,101232.00
2019-01-20T05:55:41.966Z,101232.00
2019-01-20T05:58:12.090Z,101230.00
2019-01-20T06:00:42.186Z,101235.00
2019-01-20T06:03:12.302Z,101227.00
2019-01-20T06:05:42.404Z,101228.00
2019-01-20T06:08:12.528Z,101228.00
2019-01-20T06:10:42.631Z,101233.00
2019-01-20T06:13:12.749Z,101230.00
2019-01-20T06:15:42.847Z,101232.00
2019-01-20T06:18:12.959Z,101226.00
2019-01-20T06:20:43.118Z,101237.00
2019-01-20T06:23:13.239Z,101240.00
2019-01-20T06:25:43.333Z,101241.00
2019-01-20T06:28:13.450Z,101237.00
2019-01-20T06:30:43.547Z,101246.00
2019-01-20T06:33:13.665Z,101243.00
2019-01-20T06:35:43.834Z,101238.00
2019-01-20T06:38:13.950Z,101254.00
2019-01-20T06:40:44.047Z,101261.00
2019-01-20T06:43:14.172Z,101261.00
2019-01-20T06:45:44.267Z,101260.00
2019-01-20T06:48:14.389Z,101265.00
2019-01-20T06:50:44.546Z,101261.00
2019-01-20T06:53:14.685Z,101264.00
2019-01-20T06:55:44.785Z,101269.00
2019-01-20T06:58:14.893Z,101267.00
2019-01-20T07:00:45.004Z,101268.00
2019-01-20T07:03:15.124Z,101266.00
2019-01-20T07:05:45.218Z,101265.00
2019-01-20T07:08:15.336Z,101264.00
2019-01-20T07:10:45.430Z,101270.00
2019-01-20T07:13:15.540Z,101269.00
2019-01-20T07:15:45.739Z,101282.00
2019-01-20T07:18:15.855Z,101280.00
2019-01-20T07:20:45.951Z,101272.00
2019-01-20T07:23:16.073Z,101273.00
2019-01-20T07:25:46.173Z,101278.00
2019-01-20T07:28:16.290Z,101277.00
2019-01-20T07:30:46.381Z,101282.00
2019-01-20T07:33:16.495Z,101276.00
2019-01-20T07:35:46.618Z,101285.00
2019-01-20T07:38:16.714Z,101292.00
2019-01-20T07:40:46.834Z,101291.00
2019-01-20T07:43:17.277Z,101289.00
2019-01-20T07:45:47.477Z,101291.00
2019-01-20T07:48:17.595Z,101285.00
2019-01-20T07:50:47.897Z,101300.00
2019-01-20T07:53:18.084Z,101304.00
2019-01-20T07:55:48.200Z,101304.00
2019-01-20T07:58:18.293Z,101304.00
2019-01-20T08:00:48.420Z,101307.00
2019-01-20T08:03:18.514Z,101311.00
2019-01-20T08:05:48.633Z,101317.00
2019-01-20T08:08:18.725Z,101317.00
2019-01-20T08:10:48.841Z,101323.00
2019-01-20T08:13:24.167Z,101312.00
2019-01-20T08:15:50.758Z,101334.00
2019-01-20T08:18:20.860Z,101313.00
2019-01-20T08:20:50.979Z,101322.00
2019-01-20T08:23:21.102Z,101333.00
2019-01-20T08:25:51.219Z,101332.00
2019-01-20T08:28:21.338Z,101333.00
2019-01-20T08:30:51.460Z,101331.00
2019-01-20T08:33:21.554Z,101335.00
2019-01-20T08:35:51.671Z,101337.00
2019-01-20T08:38:21.779Z,101341.00
2019-01-20T08:40:51.892Z,101326.00
2019-01-20T08:43:21.988Z,101341.00
2019-01-20T08:45:56.992Z,101333.00
2019-01-20T08:48:27.839Z,101332.00
2019-01-20T08:50:58.913Z,101346.00
2019-01-20T08:53:29.748Z,101339.00
2019-01-20T08:56:00.063Z,101348.00
2019-01-20T08:58:30.412Z,101345.00
2019-01-20T09:01:03.632Z,101357.00
2019-01-20T09:03:33.769Z,101362.00
2019-01-20T09:06:03.877Z,101360.00
2019-01-20T09:08:34.275Z,101359.00
2019-01-20T09:11:04.389Z,101369.00
2019-01-20T09:13:39.633Z,101365.00
2019-01-20T09:16:06.745Z,101362.00
2019-01-20T09:18:36.838Z,101360.00
2019-01-20T09:21:06.941Z,101370.00
2019-01-20T09:23:37.138Z,101370.00
2019-01-20T09:26:07.234Z,101368.00
2019-01-20T09:28:37.326Z,101371.00
2019-01-20T09:31:07.435Z,101378.00
2019-01-20T09:33:37.516Z,101368.00
2019-01-20T09:36:07.635Z,101374.00
2019-01-20T09:38:37.736Z,101372.00
2019-01-20T09:41:07.869Z,101379.00
2019-01-20T09:43:37.963Z,101380.00
2019-01-20T09:46:08.091Z,101390.00
2019-01-20T09:48:57.627Z,101396.00
2019-01-20T09:51:27.746Z,101386.00
2019-01-20T09:53:58.020Z,101385.00
2019-01-20T09:56:28.149Z,101385.00
2019-01-20T09:58:58.286Z,101391.00
2019-01-20T10:01:28.610Z,101391.00
2019-01-20T10:03:58.707Z,101406.00
2019-01-20T10:06:28.844Z,101404.00
2019-01-20T10:08:59.358Z,101390.00
2019-01-20T10:11:29.830Z,101400.00
2019-01-20T10:14:00.066Z,101391.00
2019-01-20T10:16:30.255Z,101391.00
2019-01-20T10:19:00.356Z,101399.00
2019-01-20T10:21:30.483Z,101407.00
2019-01-20T10:24:00.585Z,101402.00
2019-01-20T10:26:30.712Z,101403.00
2019-01-20T10:29:00.815Z,101404.00
2019-01-20T10:31:30.939Z,101405.00
2019-01-20T10:34:01.079Z,101412.00
2019-01-20T10:36:31.207Z,101406.00
2019-01-20T10:39:01.304Z,101399.00
2019-01-20T10:41:32.991Z,101397.00
2019-01-20T10:44:03.095Z,101396.00
2019-01-20T10:46:33.214Z,101401.00
2019-01-20T10:49:03.313Z,101401.00
2019-01-20T10:51:33.439Z,101407.00
2019-01-20T10:54:03.532Z,101398.00
2019-01-20T10:56:33.668Z,101408.00
2019-01-20T10:59:03.766Z,101397.00
2019-01-20T11:01:33.892Z,101403.00
2019-01-20T11:04:03.989Z,101404.00
2019-01-20T11:06:34.114Z,101404.00
2019-01-20T11:09:04.678Z,101410.00
2019-01-20T11:11:35.034Z,101405.00
2019-01-20T11:14:09.428Z,101409.00
2019-01-20T11:16:36.948Z,101413.00
2019-01-20T11:19:07.167Z,101421.00
2019-01-20T11:21:44.098Z,101422.00
2019-01-20T11:24:14.184Z,101423.00
2019-01-20T11:26:44.306Z,101421.00
2019-01-20T11:29:14.402Z,101418.00
2019-01-20T11:31:44.527Z,101421.00
2019-01-20T11:34:14.621Z,101422.00
2019-01-20T11:36:44.746Z,101427.00
2019-01-20T11:39:14.840Z,101432.00
2019-01-20T11:41:44.949Z,101425.00
2019-01-20T11:44:17.374Z,101431.00
2019-01-20T11:46:47.716Z,101434.00
2019-01-20T11:49:20.794Z,101437.00
2019-01-20T11:51:53.726Z,101430.00
2019-01-20T11:54:23.793Z,101438.00
2019-01-20T11:56:54.009Z,101437.00
2019-01-20T11:59:24.650Z,101428.00
2019-01-20T12:01:57.740Z,101430.00
2019-01-20T12:04:27.800Z,101434.00
2019-01-20T12:06:59.509Z,101423.00
2019-01-20T12:09:29.577Z,101427.00
2019-01-20T12:11:59.776Z,101430.00
2019-01-20T12:14:29.850Z,101421.00
2019-01-20T12:17:00.015Z,101422.00
2019-01-20T12:19:30.158Z,101418.00
2019-01-20T12:22:00.471Z,101417.00
2019-01-20T12:24:30.543Z,101418.00
2019-01-20T12:27:00.718Z,101416.00
2019-01-20T12:29:30.843Z,101418.00
2019-01-20T12:32:01.000Z,101415.00
2019-01-20T12:34:31.975Z,101422.00
2019-01-20T12:37:05.174Z,101412.00
2019-01-20T12:39:35.284Z,101404.00
2019-01-20T12:42:05.413Z,101404.00
2019-01-20T12:44:36.497Z,101401.00
2019-01-20T12:47:06.676Z,101399.00
2019-01-20T12:49:36.914Z,101398.00
2019-01-20T12:52:07.039Z,101406.00
2019-01-20T12:54:37.154Z,101404.00
2019-01-20T12:57:07.359Z,101400.00
2019-01-20T12:59:37.529Z,101410.00
2019-01-20T13:02:07.762Z,101413.00
2019-01-20T13:04:37.853Z,101404.00
2019-01-20T13:07:08.000Z,101409.00
2019-01-20T13:09:38.090Z,101399.00
2019-01-20T13:12:08.256Z,101410.00
2019-01-20T13:14:39.071Z,101406.00
2019-01-20T13:17:10.518Z,101401.00
2019-01-20T13:19:40.633Z,101414.00
2019-01-20T13:22:10.789Z,101402.00
2019-01-20T13:24:40.893Z,101410.00
2019-01-20T13:27:23.380Z,101408.00
2019-01-20T13:29:53.498Z,101410.00
2019-01-20T13:32:23.585Z,101410.00
2019-01-20T13:34:53.698Z,101405.00
2019-01-20T13:37:23.789Z,101412.00
2019-01-20T13:39:53.899Z,101409.00
2019-01-20T13:42:23.989Z,101415.00
2019-01-20T13:44:54.109Z,101412.00
2019-01-20T13:47:24.199Z,101420.00
2019-01-20T13:49:54.344Z,101420.00
2019-01-20T13:52:24.415Z,101413.00
2019-01-20T13:54:54.531Z,101416.00
2019-01-20T13:57:24.648Z,101415.00
2019-01-20T13:59:54.770Z,101424.00
2019-01-20T14:02:24.861Z,101419.00
2019-01-20T14:04:54.978Z,101424.00
2019-01-20T14:07:25.117Z,101427.00
2019-01-20T14:09:55.217Z,101431.00
2019-01-20T14:12:25.304Z,101432.00
2019-01-20T14:14:55.416Z,101419.00
2019-01-20T14:17:25.577Z,101427.00
2019-01-20T14:19:55.697Z,101433.00
2019-01-20T14:22:25.917Z,101430.00
2019-01-20T14:24:56.085Z,101439.00
2019-01-20T14:27:26.170Z,101432.00
2019-01-20T14:29:56.287Z,101437.00
2019-01-20T14:32:26.372Z,101441.00
2019-01-20T14:34:56.493Z,101441.00
2019-01-20T14:37:26.659Z,101442.00
2019-01-20T14:39:56.774Z,101450.00
2019-01-20T14:42:26.861Z,101453.00
2019-01-20T14:45:01.024Z,101449.00
2019-01-20T14:47:28.758Z,101456.00
2019-01-20T14:49:58.878Z,101451.00
2019-01-20T14:52:28.966Z,101453.00
2019-01-20T14:54:59.147Z,101459.00
2019-01-20T14:57:29.235Z,101461.00
2019-01-20T14:59:59.382Z,101466.00
2019-01-20T15:02:29.488Z,101463.00
2019-01-20T15:04:59.610Z,101464.00
2019-01-20T15:07:29.701Z,101463.00
2019-01-20T15:09:59.931Z,101463.00
2019-01-20T15:12:30.070Z,101459.00
2019-01-20T15:15:00.246Z,101458.00
2019-01-20T15:17:30.425Z,101464.00
2019-01-20T15:20:00.572Z,101464.00
2019-01-20T15:22:31.733Z,101468.00
2019-01-20T15:25:01.860Z,101474.00
2019-01-20T15:27:31.976Z,101476.00
2019-01-20T15:30:02.074Z,101476.00
2019-01-20T15:32:32.242Z,101479.00
2019-01-20T15:35:02.383Z,101472.00
2019-01-20T15:37:32.479Z,101466.00
2019-01-20T15:40:02.602Z,101476.00
2019-01-20T15:42:32.698Z,101484.00
2019-01-20T15:45:02.830Z,101479.00
2019-01-20T15:47:33.238Z,101474.00
2019-01-20T15:50:04.614Z,101473.00
2019-01-20T15:52:34.712Z,101473.00
2019-01-20T15:55:07.942Z,101485.00
2019-01-20T15:57:38.038Z,101482.00
2019-01-20T16:00:23.499Z,101492.00
2019-01-20T16:02:53.590Z,101494.00
2019-01-20T16:05:24.424Z,101494.00
2019-01-20T16:07:54.519Z,101483.00
2019-01-20T16:10:25.484Z,101495.00
2019-01-20T16:12:55.898Z,101496.00
2019-01-20T16:15:32.513Z,101501.00
2019-01-20T16:18:02.612Z,101500.00
2019-01-20T16:20:32.783Z,101507.00
2019-01-20T16:23:02.878Z,101503.00
2019-01-20T16:25:34.615Z,101505.00
2019-01-20T16:28:04.984Z,101500.00
2019-01-20T16:30:37.419Z,101514.00
2019-01-20T16:33:07.514Z,101516.00
2019-01-20T16:35:37.643Z,101515.00
2019-01-20T16:38:07.738Z,101518.00
2019-01-20T16:40:37.865Z,101521.00
2019-01-20T16:43:09.461Z,101517.00
2019-01-20T16:45:42.642Z,101531.00
2019-01-20T16:48:12.748Z,101516.00
2019-01-20T16:50:42.923Z,101516.00
2019-01-20T16:53:13.059Z,101528.00
2019-01-20T16:55:43.222Z,101535.00
2019-01-20T16:58:13.276Z,101531.00
2019-01-20T17:00:43.400Z,101528.00
2019-01-20T17:03:13.497Z,101522.00
2019-01-20T17:05:43.632Z,101522.00
2019-01-20T17:08:13.839Z,101524.00
2019-01-20T17:10:43.968Z,101540.00
2019-01-20T17:13:14.064Z,101530.00
2019-01-20T17:15:44.187Z,101536.00
2019-01-20T17:18:14.286Z,101537.00
2019-01-20T17:20:44.582Z,101544.00
2019-01-20T17:23:16.003Z,101540.00
2019-01-20T17:25:46.126Z,101544.00
2019-01-20T17:28:16.221Z,101546.00
2019-01-20T17:30:46.352Z,101544.00
2019-01-20T17:33:16.481Z,101554.00
2019-01-20T17:35:46.578Z,101557.00
2019-01-20T17:38:16.678Z,101559.00
2019-01-20T17:40:46.798Z,101559.00
2019-01-20T17:43:16.907Z,101569.00
2019-01-20T17:45:49.817Z,101573.00
2019-01-20T17:48:18.835Z,101560.00
2019-01-20T17:50:48.958Z,101564.00
2019-01-20T17:53:19.055Z,101567.00
2019-01-20T17:55:49.189Z,101570.00
2019-01-20T17:58:19.289Z,101582.00
2019-01-20T18:00:51.061Z,101580.00
2019-01-20T18:03:24.853Z,101575.00
2019-01-20T18:05:54.990Z,101585.00
2019-01-20T18:08:25.117Z,101583.00
2019-01-20T18:10:55.239Z,101586.00
2019-01-20T18:13:25.349Z,101589.00
2019-01-20T18:15:55.476Z,101599.00
2019-01-20T18:18:25.570Z,101592.00
2019-01-20T18:20:55.707Z,101598.00
2019-01-20T18:23:25.802Z,101606.00
2019-01-20T18:25:55.926Z,101599.00
2019-01-20T18:28:26.181Z,101604.00
2019-01-20T18:30:56.314Z,101604.00
2019-01-20T18:33:26.403Z,101602.00
2019-01-20T18:35:56.523Z,101609.00
2019-01-20T18:38:26.620Z,101618.00
2019-01-20T18:40:56.789Z,101614.00
2019-01-20T18:43:26.939Z,101609.00
2019-01-20T18:46:10.451Z,101620.00
2019-01-20T18:48:40.550Z,101612.00
2019-01-20T18:51:10.682Z,101623.00
2019-01-20T18:53:40.872Z,101627.00
2019-01-20T18:56:11.437Z,101624.00
2019-01-20T18:58:41.532Z,101616.00
2019-01-20T19:01:12.270Z,101628.00
2019-01-20T19:03:42.587Z,101629.00
2019-01-20T19:06:19.983Z,101637.00
2019-01-20T19:08:50.092Z,101636.00
2019-01-20T19:11:20.306Z,101630.00
2019-01-20T19:13:50.405Z,101636.00
2019-01-20T19:16:20.527Z,101643.00
2019-01-20T19:18:50.647Z,101648.00
2019-01-20T19:21:20.771Z,101649.00
2019-01-20T19:23:50.875Z,101665.00
2019-01-20T19:26:21.008Z,101663.00
2019-01-20T19:28:51.557Z,101669.00
2019-01-20T19:31:21.683Z,101671.00
2019-01-20T19:33:51.780Z,101667.00
2019-01-20T19:36:21.907Z,101665.00
2019-01-20T19:38:52.002Z,101673.00
2019-01-20T19:41:22.127Z,101669.00
2019-01-20T19:43:52.504Z,101682.00
2019-01-20T19:46:22.630Z,101680.00
2019-01-20T19:48:52.798Z,101677.00
2019-01-20T19:51:23.003Z,101672.00
2019-01-20T19:53:53.183Z,101683.00
2019-01-20T19:56:23.290Z,101686.00
2019-01-20T19:58:53.417Z,101689.00
2019-01-20T20:01:30.591Z,101692.00
2019-01-20T20:03:55.411Z,101701.00
2019-01-20T20:06:25.512Z,101685.00
2019-01-20T20:08:57.353Z,101692.00
2019-01-20T20:11:28.361Z,101699.00
2019-01-20T20:13:58.495Z,101691.00
2019-01-20T20:16:28.591Z,101705.00
2019-01-20T20:18:58.715Z,101709.00
2019-01-20T20:21:28.859Z,101704.00
2019-01-20T20:23:58.986Z,101712.00
2019-01-20T20:26:29.078Z,101705.00
2019-01-20T20:28:59.203Z,101717.00
2019-01-20T20:31:29.323Z,101727.00
2019-01-20T20:33:59.461Z,101714.00
2019-01-20T20:36:29.549Z,101715.00
2019-01-20T20:38:59.824Z,101718.00
2019-01-20T20:41:29.910Z,101731.00
2019-01-20T20:44:00.035Z,101729.00
2019-01-20T20:46:30.678Z,101733.00
2019-01-20T20:49:00.926Z,101741.00
2019-01-20T20:51:31.028Z,101732.00
2019-01-20T20:54:01.149Z,101742.00
2019-01-20T20:56:31.251Z,101741.00
2019-01-20T20:59:01.371Z,101739.00
2019-01-20T21:01:33.095Z,101737.00
2019-01-20T21:04:03.658Z,101733.00
2019-01-20T21:06:33.856Z,101742.00
2019-01-20T21:09:06.482Z,101738.00
2019-01-20T21:11:36.587Z,101738.00
2019-01-20T21:14:06.701Z,101740.00
2019-01-20T21:16:38.001Z,101739.00
2019-01-20T21:19:08.321Z,101745.00
2019-01-20T21:21:38.418Z,101746.00
2019-01-20T21:24:08.585Z,101738.00
2019-01-20T21:26:44.531Z,101740.00
2019-01-20T21:29:13.179Z,101739.00
2019-01-20T21:31:43.269Z,101756.00
2019-01-20T21:34:17.063Z,101766.00
2019-01-20T21:36:47.165Z,101759.00
2019-01-20T21:39:17.368Z,101757.00
2019-01-20T21:41:47.450Z,101758.00
2019-01-20T21:44:17.687Z,101763.00
2019-01-20T21:46:47.773Z,101767.00
2019-01-20T21:49:18.176Z,101776.00
2019-01-20T21:51:48.322Z,101771.00
2019-01-20T21:54:19.381Z,101775.00
2019-01-20T21:56:49.466Z,101780.00
2019-01-20T21:59:19.710Z,101786.00
2019-01-20T22:01:49.801Z,101785.00
2019-01-20T22:04:20.579Z,101792.00
2019-01-20T22:06:50.656Z,101782.00
2019-01-20T22:09:22.455Z,101792.00
2019-01-20T22:11:52.618Z,101788.00
2019-01-20T22:14:22.780Z,101785.00
2019-01-20T22:16:53.170Z,101798.00
2019-01-20T22:19:23.298Z,101797.00
2019-01-20T22:21:53.395Z,101794.00
2019-01-20T22:24:23.604Z,101802.00
2019-01-20T22:26:53.698Z,101789.00
2019-01-20T22:29:23.960Z,101788.00
2019-01-20T22:31:54.043Z,101787.00
2019-01-20T22:34:24.180Z,101791.00
2019-01-20T22:36:54.275Z,101792.00
2019-01-20T22:39:24.435Z,101789.00
2019-01-20T22:41:54.633Z,101788.00
2019-01-20T22:44:24.794Z,101796.00
2019-01-20T22:46:59.985Z,101790.00
2019-01-20T22:49:29.527Z,101792.00
2019-01-20T22:51:59.614Z,101789.00
2019-01-20T22:54:30.705Z,101792.00
2019-01-20T22:57:00.804Z,101794.00
2019-01-20T22:59:30.923Z,101792.00
2019-01-20T23:02:01.021Z,101792.00
2019-01-20T23:04:31.135Z,101794.00
2019-01-20T23:07:01.266Z,101784.00
2019-01-20T23:09:31.396Z,101792.00
2019-01-20T23:12:01.491Z,101793.00
2019-01-20T23:14:32.031Z,101805.00
2019-01-20T23:17:07.706Z,101796.00
2019-01-20T23:19:34.230Z,101796.00
2019-01-20T23:22:04.328Z,101797.00
2019-01-20T23:24:34.764Z,101799.00
2019-01-20T23:27:04.994Z,101796.00
2019-01-20T23:29:36.359Z,101799.00
2019-01-20T23:32:06.702Z,101793.00
2019-01-20T23:34:36.900Z,101795.00
2019-01-20T23:37:07.018Z,101798.00
2019-01-20T23:39:37.227Z,101798.00
2019-01-20T23:42:07.323Z,101798.00
2019-01-20T23:44:37.533Z,101798.00
2019-01-20T23:47:14.901Z,101794.00
2019-01-20T23:49:39.450Z,101799.00
2019-01-20T23:52:09.541Z,101794.00
2019-01-20T23:54:39.700Z,101790.00
2019-01-20T23:57:09.791Z,101792.00
2019-01-20T23:59:39.912Z,101800.00
